UAL1551 KSBP-KLAX
Flight info
| Callsign | UAL1551 |
|---|---|
| Flight time | N/A |
| Altitude | 17000 |
| Route | DCT RZS DCT RYDRR RYDRR2 |
| Aircraft | A320/M-SDE3FGHIRWY/LB1 |
Departure
| Time | 2026-04-15 06:08 |
|---|---|
| Airport | San Luis County Regional Airport (KSBP) |
Arrival
| Time | N/A |
|---|---|
| Airport | Los Angeles International Airport (KLAX) |
| Time | Latitude | Longitude | Altitude | Speed | Heading |
|---|---|---|---|---|---|
| 2026-04-15 05:54 | 35.23782 | -120.63844 | 202 ft | 0 kts | 48° |
| 2026-04-15 06:01 | 35.23775 | -120.63856 | 201 ft | 2 kts | 80° |
| 2026-04-15 06:02 | 35.23776 | -120.63875 | 201 ft | 2 kts | 113° |
| 2026-04-15 06:02 | 35.23785 | -120.63890 | 200 ft | 2 kts | 147° |
| 2026-04-15 06:02 | 35.23799 | -120.63896 | 200 ft | 2 kts | 180° |
| 2026-04-15 06:02 | 35.23815 | -120.63895 | 200 ft | 2 kts | 181° |
| 2026-04-15 06:03 | 35.23820 | -120.63895 | 200 ft | 0 kts | 180° |
| 2026-04-15 06:05 | 35.23770 | -120.63894 | 200 ft | 12 kts | 180° |
| 2026-04-15 06:05 | 35.23697 | -120.63850 | 201 ft | 12 kts | 123° |
| 2026-04-15 06:05 | 35.23647 | -120.63762 | 205 ft | 12 kts | 126° |
| 2026-04-15 06:05 | 35.23594 | -120.63672 | 208 ft | 13 kts | 125° |
| 2026-04-15 06:06 | 35.23539 | -120.63574 | 211 ft | 14 kts | 124° |
| 2026-04-15 06:06 | 35.23479 | -120.63465 | 213 ft | 15 kts | 123° |
| 2026-04-15 06:06 | 35.23415 | -120.63354 | 216 ft | 16 kts | 125° |
| 2026-04-15 06:06 | 35.23357 | -120.63254 | 219 ft | 10 kts | 134° |
| 2026-04-15 06:07 | 35.23290 | -120.63266 | 217 ft | 11 kts | 212° |
| 2026-04-15 06:07 | 35.23280 | -120.63305 | 216 ft | 0 kts | 306° |
| 2026-04-15 06:07 | 35.23324 | -120.63381 | 214 ft | 44 kts | 305° |
| 2026-04-15 06:07 | 35.23666 | -120.63978 | 197 ft | 123 kts | 305° |
| 2026-04-15 06:08 | 35.24242 | -120.64999 | 480 ft | 156 kts | 305° |
| 2026-04-15 06:08 | 35.24917 | -120.66002 | 1262 ft | 153 kts | 328° |
| 2026-04-15 06:08 | 35.25864 | -120.66402 | 2110 ft | 146 kts | 350° |
| 2026-04-15 06:08 | 35.26855 | -120.66820 | 2494 ft | 163 kts | 324° |
| 2026-04-15 06:09 | 35.27533 | -120.68020 | 2832 ft | 184 kts | 297° |
| 2026-04-15 06:09 | 35.28085 | -120.69533 | 3189 ft | 204 kts | 297° |
| 2026-04-15 06:09 | 35.28743 | -120.71149 | 3622 ft | 220 kts | 300° |
| 2026-04-15 06:09 | 35.29492 | -120.72899 | 3991 ft | 244 kts | 293° |
| 2026-04-15 06:10 | 35.29670 | -120.75040 | 4453 ft | 269 kts | 257° |
| 2026-04-15 06:10 | 35.28733 | -120.77024 | 5177 ft | 279 kts | 221° |
| 2026-04-15 06:10 | 35.27010 | -120.78050 | 6066 ft | 281 kts | 187° |
| 2026-04-15 06:10 | 35.25123 | -120.77769 | 6926 ft | 280 kts | 154° |
| 2026-04-15 06:11 | 35.23611 | -120.76283 | 7719 ft | 281 kts | 125° |
| 2026-04-15 06:11 | 35.22528 | -120.74285 | 8465 ft | 286 kts | 120° |
| 2026-04-15 06:11 | 35.21435 | -120.72226 | 9174 ft | 293 kts | 123° |
| 2026-04-15 06:11 | 35.20229 | -120.70178 | 9874 ft | 298 kts | 126° |
| 2026-04-15 06:12 | 35.18933 | -120.68166 | 10496 ft | 306 kts | 128° |
| 2026-04-15 06:12 | 35.17534 | -120.66119 | 10848 ft | 323 kts | 129° |
| 2026-04-15 06:12 | 35.16016 | -120.63983 | 11155 ft | 341 kts | 130° |
| 2026-04-15 06:12 | 35.14404 | -120.61762 | 11447 ft | 357 kts | 131° |
| 2026-04-15 06:13 | 35.12714 | -120.59457 | 11727 ft | 372 kts | 131° |
| 2026-04-15 06:13 | 35.10968 | -120.57091 | 12308 ft | 378 kts | 131° |
| 2026-04-15 06:13 | 35.09197 | -120.54700 | 12862 ft | 381 kts | 131° |
| 2026-04-15 06:13 | 35.07411 | -120.52291 | 13504 ft | 384 kts | 131° |
| 2026-04-15 06:14 | 35.05631 | -120.49895 | 14096 ft | 387 kts | 131° |
| 2026-04-15 06:14 | 35.03803 | -120.47437 | 14731 ft | 390 kts | 131° |
| 2026-04-15 06:14 | 35.01981 | -120.44990 | 15305 ft | 393 kts | 131° |
| 2026-04-15 06:14 | 35.00133 | -120.42510 | 15879 ft | 395 kts | 131° |
| 2026-04-15 06:15 | 34.98267 | -120.40009 | 16443 ft | 398 kts | 131° |
| 2026-04-15 06:15 | 34.96408 | -120.37515 | 16869 ft | 401 kts | 131° |
| 2026-04-15 06:15 | 34.94514 | -120.34976 | 16991 ft | 402 kts | 131° |
| 2026-04-15 06:15 | 34.92628 | -120.32449 | 17018 ft | 401 kts | 131° |
| 2026-04-15 06:16 | 34.90739 | -120.29921 | 16974 ft | 401 kts | 131° |
| 2026-04-15 06:16 | 34.88824 | -120.27359 | 17015 ft | 414 kts | 131° |
| 2026-04-15 06:16 | 34.86885 | -120.24765 | 16928 ft | 405 kts | 131° |
| 2026-04-15 06:16 | 34.84978 | -120.22220 | 16952 ft | 414 kts | 131° |
| 2026-04-15 06:17 | 34.83012 | -120.19594 | 16953 ft | 430 kts | 131° |
| 2026-04-15 06:17 | 34.80960 | -120.16857 | 16945 ft | 445 kts | 131° |
| 2026-04-15 06:17 | 34.78854 | -120.14052 | 16947 ft | 453 kts | 131° |
| 2026-04-15 06:17 | 34.76701 | -120.11186 | 17024 ft | 455 kts | 131° |
| 2026-04-15 06:18 | 34.74581 | -120.08367 | 17018 ft | 455 kts | 131° |
| 2026-04-15 06:18 | 34.72443 | -120.05528 | 17019 ft | 455 kts | 131° |
| 2026-04-15 06:18 | 34.70282 | -120.02659 | 17013 ft | 455 kts | 131° |
| 2026-04-15 06:18 | 34.68166 | -119.99854 | 16983 ft | 456 kts | 131° |
| 2026-04-15 06:19 | 34.65996 | -119.96978 | 16998 ft | 456 kts | 131° |
| 2026-04-15 06:19 | 34.63866 | -119.94154 | 16983 ft | 455 kts | 131° |
| 2026-04-15 06:19 | 34.61733 | -119.91331 | 16987 ft | 455 kts | 131° |
| 2026-04-15 06:19 | 34.59568 | -119.88467 | 16977 ft | 455 kts | 131° |
| 2026-04-15 06:20 | 34.57437 | -119.85651 | 16963 ft | 455 kts | 131° |
| 2026-04-15 06:20 | 34.55306 | -119.82838 | 16962 ft | 456 kts | 131° |
| 2026-04-15 06:20 | 34.53164 | -119.79971 | 16958 ft | 455 kts | 129° |
| 2026-04-15 06:20 | 34.51216 | -119.76989 | 16941 ft | 454 kts | 125° |
| 2026-04-15 06:21 | 34.49451 | -119.73773 | 16939 ft | 454 kts | 120° |
| 2026-04-15 06:21 | 34.47906 | -119.70483 | 16939 ft | 454 kts | 117° |
| 2026-04-15 06:21 | 34.46383 | -119.67111 | 16935 ft | 448 kts | 117° |
| 2026-04-15 06:21 | 34.44906 | -119.63826 | 16923 ft | 442 kts | 117° |
| 2026-04-15 06:22 | 34.43444 | -119.60580 | 16895 ft | 442 kts | 117° |
| 2026-04-15 06:22 | 34.41969 | -119.57317 | 16918 ft | 442 kts | 117° |
| 2026-04-15 06:22 | 34.40476 | -119.54026 | 16907 ft | 443 kts | 117° |
| 2026-04-15 06:22 | 34.39008 | -119.50796 | 16637 ft | 437 kts | 117° |
| 2026-04-15 06:23 | 34.37542 | -119.47581 | 16323 ft | 425 kts | 117° |
| 2026-04-15 06:23 | 34.36136 | -119.44498 | 16047 ft | 414 kts | 117° |
| 2026-04-15 06:23 | 34.34772 | -119.41512 | 15709 ft | 405 kts | 117° |
| 2026-04-15 06:23 | 34.33421 | -119.38554 | 15285 ft | 400 kts | 117° |
| 2026-04-15 06:24 | 34.32084 | -119.35631 | 14763 ft | 396 kts | 117° |
| 2026-04-15 06:24 | 34.30751 | -119.32718 | 14279 ft | 394 kts | 118° |
| 2026-04-15 06:24 | 34.29427 | -119.29828 | 13742 ft | 392 kts | 118° |
| 2026-04-15 06:24 | 34.28117 | -119.26971 | 13223 ft | 390 kts | 118° |
| 2026-04-15 06:25 | 34.26798 | -119.24098 | 12685 ft | 387 kts | 118° |
| 2026-04-15 06:25 | 34.25503 | -119.21279 | 12171 ft | 385 kts | 118° |
| 2026-04-15 06:25 | 34.24210 | -119.18467 | 11793 ft | 378 kts | 118° |
| 2026-04-15 06:25 | 34.22949 | -119.15728 | 11568 ft | 367 kts | 117° |
| 2026-04-15 06:26 | 34.21728 | -119.13079 | 11404 ft | 355 kts | 117° |
| 2026-04-15 06:26 | 34.20548 | -119.10518 | 11236 ft | 344 kts | 117° |
| 2026-04-15 06:26 | 34.19385 | -119.07995 | 11030 ft | 335 kts | 117° |
| 2026-04-15 06:26 | 34.18337 | -119.05617 | 10934 ft | 322 kts | 114° |
| 2026-04-15 06:27 | 34.17374 | -119.03185 | 10945 ft | 307 kts | 113° |
| 2026-04-15 06:27 | 34.16475 | -119.00871 | 10974 ft | 303 kts | 113° |
| 2026-04-15 06:27 | 34.15576 | -118.98552 | 10991 ft | 303 kts | 113° |
| 2026-04-15 06:27 | 34.14685 | -118.96259 | 10996 ft | 303 kts | 114° |
| 2026-04-15 06:28 | 34.13791 | -118.93963 | 11010 ft | 303 kts | 113° |
| 2026-04-15 06:28 | 34.12880 | -118.91636 | 11008 ft | 303 kts | 113° |
| 2026-04-15 06:28 | 34.11982 | -118.89342 | 10976 ft | 303 kts | 113° |
| 2026-04-15 06:28 | 34.11082 | -118.87045 | 10982 ft | 304 kts | 113° |
| 2026-04-15 06:29 | 34.10178 | -118.84737 | 11020 ft | 303 kts | 113° |
| 2026-04-15 06:29 | 34.09276 | -118.82436 | 11007 ft | 303 kts | 113° |
| 2026-04-15 06:29 | 34.08380 | -118.80156 | 10945 ft | 303 kts | 113° |
| 2026-04-15 06:29 | 34.07467 | -118.77828 | 10965 ft | 303 kts | 113° |
| 2026-04-15 06:30 | 34.06571 | -118.75552 | 10896 ft | 305 kts | 113° |
| 2026-04-15 06:30 | 34.05649 | -118.73203 | 10481 ft | 306 kts | 113° |
| 2026-04-15 06:30 | 34.04742 | -118.70888 | 10085 ft | 306 kts | 113° |
| 2026-04-15 06:30 | 34.03829 | -118.68562 | 9734 ft | 305 kts | 113° |
| 2026-04-15 06:31 | 34.03065 | -118.66209 | 9541 ft | 295 kts | 103° |
| 2026-04-15 06:31 | 34.02681 | -118.63804 | 9277 ft | 290 kts | 95° |
| 2026-04-15 06:31 | 34.02455 | -118.61387 | 9031 ft | 285 kts | 93° |
| 2026-04-15 06:31 | 34.02256 | -118.59044 | 8714 ft | 285 kts | 94° |